createdAt,value
2018-12-07T00:01:21.560Z,97069.32
2018-12-07T00:04:09.430Z,97077.27
2018-12-07T00:06:56.670Z,97072.68
2018-12-07T00:09:43.901Z,97072.47
2018-12-07T00:12:31.881Z,97067.56
2018-12-07T00:18:31.094Z,97065.23
2018-12-07T00:21:39.488Z,97058.28
2018-12-07T00:24:07.158Z,97069.67
2018-12-07T00:26:34.793Z,97059.36
2018-12-07T00:29:02.474Z,97062.42
2018-12-07T00:31:51.440Z,97056.23
2018-12-07T00:35:05.718Z,97050.13
2018-12-07T00:37:33.274Z,97049.61
2018-12-07T00:40:00.829Z,97042.13
2018-12-07T00:42:28.422Z,97038.33
2018-12-07T00:44:57.525Z,97042.18
2018-12-07T00:47:27.425Z,97037.30
2018-12-07T00:49:55.612Z,97042.52
2018-12-07T00:52:23.160Z,97038.90
2018-12-07T00:54:50.769Z,97034.00
2018-12-07T00:57:20.231Z,97032.97
2018-12-07T00:59:48.185Z,97026.36
2018-12-07T01:02:15.735Z,97031.71
2018-12-07T01:04:43.283Z,97026.31
2018-12-07T01:07:10.834Z,97028.11
2018-12-07T01:09:38.384Z,97020.93
2018-12-07T01:12:05.969Z,97021.93
2018-12-07T01:14:33.530Z,97022.98
2018-12-07T01:17:01.088Z,97026.36
2018-12-07T01:19:28.657Z,97029.22
2018-12-07T01:21:56.202Z,97025.95
2018-12-07T01:24:23.759Z,97013.86
2018-12-07T01:26:54.594Z,97020.22
2018-12-07T01:29:22.215Z,97026.21
2018-12-07T01:31:49.769Z,97021.83
2018-12-07T01:34:17.331Z,97017.70
2018-12-07T01:36:44.883Z,97008.17
2018-12-07T01:39:12.431Z,97014.34
2018-12-07T01:41:44.516Z,97018.17
2018-12-07T01:44:12.170Z,97015.33
2018-12-07T01:46:39.737Z,97012.23
2018-12-07T01:49:07.292Z,97001.64
2018-12-07T01:51:34.964Z,97004.98
2018-12-07T01:54:04.658Z,96997.27
2018-12-07T01:56:33.338Z,97002.41
2018-12-07T01:59:02.971Z,96998.08
2018-12-07T02:01:30.533Z,96987.79
2018-12-07T02:03:58.119Z,96988.78
2018-12-07T02:06:25.771Z,96979.08
2018-12-07T02:08:53.332Z,96987.05
2018-12-07T02:11:24.853Z,96979.86
2018-12-07T02:13:52.841Z,96976.56
2018-12-07T02:16:20.399Z,96975.54
2018-12-07T02:18:47.950Z,96975.80
2018-12-07T02:21:15.527Z,96976.84
2018-12-07T02:23:43.082Z,96969.11
2018-12-07T02:26:10.628Z,96973.98
2018-12-07T02:28:38.235Z,96958.80
2018-12-07T02:31:06.950Z,96954.18
2018-12-07T02:33:35.835Z,96962.67
2018-12-07T02:36:05.498Z,96956.80
2018-12-07T02:38:34.976Z,96951.61
2018-12-07T02:41:02.582Z,96946.98
2018-12-07T02:43:30.138Z,96938.49
2018-12-07T02:45:57.688Z,96936.69
2018-12-07T02:48:25.257Z,96935.69
2018-12-07T02:50:52.896Z,96936.97
2018-12-07T02:53:20.483Z,96940.34
2018-12-07T02:55:48.014Z,96933.14
2018-12-07T02:58:15.553Z,96935.45
2018-12-07T03:00:43.090Z,96936.27
2018-12-07T03:03:10.631Z,96928.79
2018-12-07T03:05:40.659Z,96920.58
2018-12-07T03:08:10.687Z,96916.98
2018-12-07T03:10:38.587Z,96913.91
2018-12-07T03:13:06.122Z,96912.37
2018-12-07T03:15:33.689Z,96913.36
2018-12-07T03:18:01.321Z,96911.81
2018-12-07T03:20:28.862Z,96905.40
2018-12-07T03:22:56.404Z,96908.21
2018-12-07T03:25:23.938Z,96904.61
2018-12-07T03:27:51.464Z,96893.06
2018-12-07T03:30:19.010Z,96892.81
2018-12-07T03:32:46.552Z,96893.06
2018-12-07T03:35:14.106Z,96892.56
2018-12-07T03:37:41.647Z,96887.14
2018-12-07T03:40:11.068Z,96882.78
2018-12-07T03:42:40.789Z,96883.55
2018-12-07T03:45:08.333Z,96876.09
2018-12-07T03:47:35.878Z,96885.59
2018-12-07T03:50:03.633Z,96881.73
2018-12-07T03:52:31.174Z,96875.32
2018-12-07T03:54:58.724Z,96874.53
2018-12-07T03:57:26.259Z,96871.70
2018-12-07T03:59:53.793Z,96867.61
2018-12-07T04:02:21.328Z,96866.08
2018-12-07T04:04:48.883Z,96865.81
2018-12-07T04:07:16.413Z,96854.22
2018-12-07T04:09:43.950Z,96851.91
2018-12-07T04:12:12.933Z,96854.48
2018-12-07T04:14:42.590Z,96851.66
2018-12-07T04:17:10.185Z,96849.86
2018-12-07T04:19:38.015Z,96849.36
2018-12-07T04:22:05.666Z,96848.09
2018-12-07T04:24:33.200Z,96849.36
2018-12-07T04:27:00.861Z,96844.99
2018-12-07T04:29:29.525Z,96847.29
2018-12-07T04:31:57.128Z,96850.14
2018-12-07T04:34:24.678Z,96848.09
2018-12-07T04:36:52.263Z,96842.68
2018-12-07T04:39:20.139Z,96841.41
2018-12-07T04:41:47.883Z,96841.13
2018-12-07T04:44:15.423Z,96839.09
2018-12-07T04:46:42.961Z,96829.28
2018-12-07T04:49:10.487Z,96826.21
2018-12-07T04:51:39.329Z,96822.35
2018-12-07T04:54:08.512Z,96817.99
2018-12-07T04:56:37.363Z,96819.52
2018-12-07T04:59:04.901Z,96823.38
2018-12-07T05:01:32.447Z,96816.95
2018-12-07T05:03:59.999Z,96819.27
2018-12-07T05:06:27.555Z,96813.87
2018-12-07T05:08:55.103Z,96808.45
2018-12-07T05:11:25.720Z,96808.20
2018-12-07T05:13:54.439Z,96816.70
2018-12-07T05:16:23.705Z,96803.55
2018-12-07T05:18:51.330Z,96804.09
2018-12-07T05:21:18.875Z,96809.23
2018-12-07T05:23:48.176Z,96807.70
2018-12-07T05:26:17.744Z,96802.02
2018-12-07T05:28:45.609Z,96803.06
2018-12-07T05:31:13.143Z,96795.34
2018-12-07T05:33:40.679Z,96798.42
2018-12-07T05:36:08.243Z,96795.58
2018-12-07T05:38:35.973Z,96795.32
2018-12-07T05:41:03.511Z,96792.26
2018-12-07T05:43:31.058Z,96794.83
2018-12-07T05:45:58.597Z,96795.58
2018-12-07T05:48:26.128Z,96790.95
2018-12-07T05:50:53.659Z,96798.16
2018-12-07T05:53:22.676Z,96793.03
2018-12-07T05:55:50.873Z,96789.67
2018-12-07T05:58:18.405Z,96788.91
2018-12-07T06:00:45.965Z,96786.31
2018-12-07T06:03:13.578Z,96778.10
2018-12-07T06:05:41.208Z,96783.23
2018-12-07T06:08:08.736Z,96779.63
2018-12-07T06:10:36.272Z,96783.23
2018-12-07T06:13:03.916Z,96780.92
2018-12-07T06:15:31.448Z,96782.48
2018-12-07T06:17:59.014Z,96779.90
2018-12-07T06:20:28.947Z,96779.88
2018-12-07T06:22:56.988Z,96784.77
2018-12-07T06:25:24.514Z,96785.29
2018-12-07T06:27:53.174Z,96778.88
2018-12-07T06:30:21.029Z,96780.67
2018-12-07T06:32:51.405Z,96782.98
2018-12-07T06:35:19.605Z,96777.32
2018-12-07T06:37:47.142Z,96777.58
2018-12-07T06:40:14.680Z,96774.23
2018-12-07T06:42:42.227Z,96770.11
2018-12-07T06:45:09.865Z,96769.84
2018-12-07T06:47:37.408Z,96762.91
2018-12-07T06:50:07.469Z,96769.33
2018-12-07T06:52:35.016Z,96770.89
2018-12-07T06:55:02.558Z,96767.03
2018-12-07T06:57:30.114Z,96763.44
2018-12-07T06:59:58.091Z,96758.02
2018-12-07T07:02:28.757Z,96753.89
2018-12-07T07:04:56.832Z,96753.37
2018-12-07T07:07:25.989Z,96746.70
2018-12-07T07:09:54.900Z,96747.20
2018-12-07T07:12:23.771Z,96737.17
2018-12-07T07:14:51.773Z,96737.94
2018-12-07T07:17:19.319Z,96733.58
2018-12-07T07:19:46.855Z,96736.39
2018-12-07T07:22:14.395Z,96744.13
2018-12-07T07:24:41.939Z,96736.39
2018-12-07T07:27:09.476Z,96738.98
2018-12-07T07:29:37.050Z,96736.16
2018-12-07T07:32:04.703Z,96727.66
2018-12-07T07:34:32.233Z,96728.42
2018-12-07T07:36:59.769Z,96718.12
2018-12-07T07:39:27.330Z,96724.30
2018-12-07T07:41:57.063Z,96721.20
2018-12-07T07:44:26.259Z,96714.27
2018-12-07T07:46:54.904Z,96709.91
2018-12-07T07:49:22.557Z,96706.29
2018-12-07T07:51:50.098Z,96710.41
2018-12-07T07:54:17.626Z,96710.14
2018-12-07T07:56:46.580Z,96709.36
2018-12-07T07:59:14.186Z,96712.19
2018-12-07T08:01:41.717Z,96710.39
2018-12-07T08:04:09.260Z,96707.04
2018-12-07T08:06:36.809Z,96715.27
2018-12-07T08:09:06.149Z,96704.22
2018-12-07T08:11:35.613Z,96707.31
2018-12-07T08:14:03.151Z,96704.22
2018-12-07T08:16:30.711Z,96704.22
2018-12-07T08:18:58.241Z,96695.21
2018-12-07T08:21:25.780Z,96699.07
2018-12-07T08:23:54.989Z,96698.56
2018-12-07T08:26:24.891Z,96695.44
2018-12-07T08:28:52.473Z,96691.86
2018-12-07T08:31:20.316Z,96689.28
2018-12-07T08:33:49.542Z,96686.71
2018-12-07T08:36:19.465Z,96677.17
2018-12-07T08:38:47.002Z,96681.03
2018-12-07T08:41:14.536Z,96667.12
2018-12-07T08:43:43.794Z,96674.06
2018-12-07T08:46:13.417Z,96672.25
2018-12-07T08:48:40.962Z,96672.50
2018-12-07T08:51:08.493Z,96667.09
2018-12-07T08:53:36.041Z,96665.81
2018-12-07T08:56:03.567Z,96651.93
2018-12-07T08:58:31.100Z,96644.20
2018-12-07T09:00:58.644Z,96635.95
2018-12-07T09:03:26.180Z,96634.91
2018-12-07T09:05:53.723Z,96621.78
2018-12-07T09:08:23.405Z,96618.43
2018-12-07T09:10:52.984Z,96623.33
2018-12-07T09:13:22.796Z,96620.50
2018-12-07T09:15:50.926Z,96613.02
2018-12-07T09:18:18.912Z,96611.67
2018-12-07T09:20:53.757Z,96605.23
2018-12-07T09:23:16.018Z,96607.80
2018-12-07T09:25:43.565Z,96598.78
2018-12-07T09:28:11.098Z,96597.20
2018-12-07T09:30:38.636Z,96593.03
2018-12-07T09:33:07.465Z,96587.63
2018-12-07T09:35:37.185Z,96589.92
2018-12-07T09:38:13.095Z,96582.58
2018-12-07T09:40:37.032Z,96570.19
2018-12-07T09:43:04.577Z,96564.23
2018-12-07T09:45:32.127Z,96568.30
2018-12-07T09:48:00.508Z,96561.60
2018-12-07T09:50:28.041Z,96559.48
2018-12-07T09:52:55.604Z,96559.85
2018-12-07T09:55:25.421Z,96553.70
2018-12-07T09:57:52.957Z,96566.17
2018-12-07T10:00:20.503Z,96554.61
2018-12-07T10:02:48.045Z,96554.84
2018-12-07T10:05:15.593Z,96546.55
2018-12-07T10:07:43.625Z,96538.81
2018-12-07T10:10:12.788Z,96532.86
2018-12-07T10:12:40.905Z,96531.06
2018-12-07T10:15:08.445Z,96534.42
2018-12-07T10:17:35.980Z,96526.08
2018-12-07T10:20:04.142Z,96507.34
2018-12-07T10:22:31.685Z,96518.59
2018-12-07T10:24:59.228Z,96506.32
2018-12-07T10:27:28.281Z,96508.91
2018-12-07T10:29:55.975Z,96498.77
2018-12-07T10:32:23.518Z,96502.69
2018-12-07T10:34:51.055Z,96507.03
2018-12-07T10:37:18.600Z,96495.61
2018-12-07T10:39:46.131Z,96479.66
2018-12-07T10:42:13.659Z,96486.02
2018-12-07T10:44:41.197Z,96481.93
2018-12-07T10:47:08.724Z,96474.99
2018-12-07T10:49:36.492Z,96471.66
2018-12-07T10:52:07.240Z,96464.92
2018-12-07T10:54:34.771Z,96455.83
2018-12-07T10:57:02.311Z,96452.20
2018-12-07T10:59:29.840Z,96449.75
2018-12-07T11:02:03.879Z,96445.09
2018-12-07T11:04:38.877Z,96436.86
2018-12-07T11:07:12.047Z,96422.74
2018-12-07T11:09:45.223Z,96425.08
2018-12-07T11:12:18.481Z,96420.56
2018-12-07T11:14:52.381Z,96417.02
2018-12-07T11:17:26.319Z,96414.72
2018-12-07T11:20:00.204Z,96404.94
2018-12-07T11:22:33.419Z,96401.48
2018-12-07T11:25:07.527Z,96384.91
2018-12-07T11:30:48.101Z,96374.53
2018-12-07T11:33:21.585Z,96371.13
2018-12-07T11:35:50.624Z,96363.80
2018-12-07T11:38:19.702Z,96352.20
2018-12-07T11:40:49.657Z,96352.88
2018-12-07T11:43:17.970Z,96339.23
2018-12-07T11:45:45.508Z,96340.03
2018-12-07T11:48:13.070Z,96330.13
2018-12-07T11:50:40.608Z,96328.57
2018-12-07T11:53:08.147Z,96322.10
2018-12-07T11:55:35.673Z,96319.94
2018-12-07T11:58:03.210Z,96324.52
2018-12-07T12:00:30.767Z,96316.66
2018-12-07T12:02:58.326Z,96316.26
2018-12-07T12:05:25.889Z,96307.53
2018-12-07T12:07:53.427Z,96299.13
2018-12-07T12:10:20.951Z,96293.86
2018-12-07T12:12:48.577Z,96290.63
2018-12-07T12:15:16.099Z,96291.94
2018-12-07T12:17:44.268Z,96285.03
2018-12-07T12:20:12.083Z,96273.98
2018-12-07T12:22:39.617Z,96261.30
2018-12-07T12:25:07.255Z,96270.41
2018-12-07T12:27:34.785Z,96274.06
2018-12-07T12:30:02.436Z,96268.16
2018-12-07T12:32:31.736Z,96265.81
2018-12-07T12:35:00.104Z,96259.88
2018-12-07T12:37:28.044Z,96257.98
2018-12-07T12:39:55.578Z,96249.89
2018-12-07T12:42:23.112Z,96242.81
2018-12-07T12:44:50.646Z,96243.25
2018-12-07T12:47:18.176Z,96228.61
2018-12-07T12:49:45.709Z,96244.09
2018-12-07T12:52:13.244Z,96227.70
2018-12-07T12:54:40.782Z,96233.88
2018-12-07T12:57:09.311Z,96216.22
2018-12-07T12:59:37.980Z,96216.60
2018-12-07T13:02:05.628Z,96212.95
2018-12-07T13:04:33.828Z,96215.90
2018-12-07T13:07:01.458Z,96217.50
2018-12-07T13:09:29.005Z,96218.77
2018-12-07T13:11:56.540Z,96206.27
2018-12-07T13:14:24.090Z,96206.83
2018-12-07T13:16:51.653Z,96200.19
2018-12-07T13:19:19.192Z,96196.55
2018-12-07T13:21:46.734Z,96195.53
2018-12-07T13:24:14.267Z,96184.73
2018-12-07T13:26:41.805Z,96179.32
2018-12-07T13:29:09.365Z,96178.78
2018-12-07T13:31:38.524Z,96179.02
2018-12-07T13:34:07.957Z,96173.44
2018-12-07T13:36:38.178Z,96157.06
2018-12-07T13:39:07.182Z,96154.27
2018-12-07T13:41:36.976Z,96155.09
2018-12-07T13:44:05.011Z,96148.52
2018-12-07T13:46:32.616Z,96140.09
2018-12-07T13:49:00.263Z,96132.97
2018-12-07T13:51:27.999Z,96132.56
2018-12-07T13:53:55.782Z,96125.46
2018-12-07T13:56:23.767Z,96116.56
2018-12-07T13:58:52.045Z,96112.64
2018-12-07T14:01:19.757Z,96106.78
2018-12-07T14:03:47.609Z,96088.80
2018-12-07T14:06:15.442Z,96081.63
2018-12-07T14:08:43.258Z,96084.16
2018-12-07T14:11:11.030Z,96069.13
2018-12-07T14:13:38.877Z,96068.58
2018-12-07T14:16:06.666Z,96071.69
2018-12-07T14:18:34.452Z,96059.11
2018-12-07T14:21:02.374Z,96055.23
2018-12-07T14:23:30.201Z,96049.12
2018-12-07T14:25:59.754Z,96047.81
2018-12-07T14:28:27.409Z,96045.26
2018-12-07T14:30:55.081Z,96043.03
2018-12-07T14:33:22.791Z,96037.11
2018-12-07T14:35:50.633Z,96038.94
2018-12-07T14:38:20.902Z,96049.55
2018-12-07T14:40:49.006Z,96041.99
2018-12-07T14:43:16.540Z,96036.03
2018-12-07T14:45:44.112Z,96034.68
2018-12-07T14:48:13.070Z,96025.03
2018-12-07T14:50:40.791Z,96012.75
2018-12-07T14:53:10.844Z,96001.80
2018-12-07T14:55:39.141Z,95987.38
2018-12-07T14:58:07.424Z,95987.76
2018-12-07T15:00:36.728Z,95989.66
2018-12-07T15:03:05.423Z,95976.10
2018-12-07T15:05:33.221Z,95979.80
2018-12-07T15:08:00.992Z,95975.45
2018-12-07T15:10:29.149Z,95981.88
2018-12-07T15:12:56.823Z,95973.67
2018-12-07T15:15:24.421Z,95974.50
2018-12-07T15:17:52.220Z,95977.33
2018-12-07T15:20:19.830Z,95981.41
2018-12-07T15:22:47.404Z,95972.66
2018-12-07T15:25:16.875Z,95972.16
2018-12-07T15:27:44.969Z,95952.11
2018-12-07T15:30:12.756Z,95940.35
2018-12-07T15:32:40.368Z,95944.22
2018-12-07T15:35:08.238Z,95953.48
2018-12-07T15:37:35.989Z,95953.80
2018-12-07T15:40:05.136Z,95942.97
2018-12-07T15:42:32.998Z,95958.37
2018-12-07T15:45:01.684Z,95950.97
2018-12-07T15:47:30.965Z,95936.53
2018-12-07T15:49:58.828Z,95934.23
2018-12-07T15:52:26.563Z,95922.42
2018-12-07T15:54:54.256Z,95924.73
2018-12-07T15:57:21.947Z,95934.45
2018-12-07T15:59:49.585Z,95923.69
2018-12-07T16:02:17.329Z,95918.54
2018-12-07T16:04:45.267Z,95906.44
2018-12-07T16:07:13.765Z,95925.69
2018-12-07T16:09:43.281Z,95926.52
2018-12-07T16:12:13.999Z,95921.37
2018-12-07T16:14:41.702Z,95912.38
2018-12-07T16:17:09.309Z,95908.52
2018-12-07T16:19:36.926Z,95913.64
2018-12-07T16:22:04.562Z,95914.36
2018-12-07T16:24:32.583Z,95908.20
2018-12-07T16:27:00.362Z,95907.67
2018-12-07T16:29:28.165Z,95894.78
2018-12-07T16:31:56.116Z,95893.25
2018-12-07T16:34:23.874Z,95883.75
2018-12-07T16:36:51.710Z,95882.71
2018-12-07T16:39:19.449Z,95877.37
2018-12-07T16:41:47.239Z,95875.11
2018-12-07T16:44:15.103Z,95873.02
2018-12-07T16:46:43.605Z,95887.26
2018-12-07T16:49:12.229Z,95884.64
2018-12-07T16:51:41.026Z,95893.94
2018-12-07T16:54:09.087Z,95905.77
2018-12-07T16:56:36.792Z,95901.80
2018-12-07T16:59:04.482Z,95894.56
2018-12-07T17:01:32.252Z,95897.81
2018-12-07T17:04:00.184Z,95880.81
2018-12-07T17:06:27.913Z,95868.91
2018-12-07T17:08:55.996Z,95864.77
2018-12-07T17:11:23.845Z,95853.20
2018-12-07T17:13:51.497Z,95852.17
2018-12-07T17:16:19.063Z,95857.45
2018-12-07T17:18:46.738Z,95855.88
2018-12-07T17:21:14.547Z,95839.41
2018-12-07T17:23:43.013Z,95837.64
2018-12-07T17:26:10.605Z,95830.97
2018-12-07T17:28:38.332Z,95814.20
2018-12-07T17:31:06.308Z,95812.70
2018-12-07T17:33:34.045Z,95804.91
2018-12-07T17:36:01.600Z,95786.03
2018-12-07T17:38:29.884Z,95772.75
2018-12-07T17:40:58.419Z,95777.89
2018-12-07T17:43:26.190Z,95781.80
2018-12-07T17:45:54.550Z,95791.20
2018-12-07T17:48:22.230Z,95781.69
2018-12-07T17:50:49.904Z,95784.74
2018-12-07T17:53:18.070Z,95781.09
2018-12-07T17:55:46.115Z,95772.91
2018-12-07T17:58:13.870Z,95779.36
2018-12-07T18:00:41.775Z,95776.25
2018-12-07T18:03:10.015Z,95781.80
2018-12-07T18:05:37.545Z,95778.67
2018-12-07T18:08:05.168Z,95763.45
2018-12-07T18:10:32.733Z,95747.13
2018-12-07T18:13:00.460Z,95757.41
2018-12-07T18:15:29.500Z,95750.75
2018-12-07T18:17:57.237Z,95750.95
2018-12-07T18:20:26.119Z,95749.38
2018-12-07T18:22:53.803Z,95746.53
2018-12-07T18:25:22.569Z,95740.59
2018-12-07T18:27:50.497Z,95745.73
2018-12-07T18:30:18.294Z,95736.16
2018-12-07T18:32:47.662Z,95735.84
2018-12-07T18:35:15.567Z,95739.59
2018-12-07T18:37:43.199Z,95750.00
2018-12-07T18:40:11.005Z,95739.34
2018-12-07T18:42:38.769Z,95741.05
2018-12-07T18:45:07.381Z,95742.80
2018-12-07T18:47:36.098Z,95746.17
2018-12-07T18:50:08.286Z,95740.23
2018-12-07T18:52:36.038Z,95740.33
2018-12-07T18:55:04.624Z,95734.14
2018-12-07T18:57:32.314Z,95733.92
2018-12-07T19:00:00.071Z,95738.33
2018-12-07T19:02:27.998Z,95740.43
2018-12-07T19:04:55.621Z,95728.09
2018-12-07T19:07:25.424Z,95728.36
2018-12-07T19:09:54.545Z,95727.02
2018-12-07T19:12:23.860Z,95727.83
2018-12-07T19:14:51.529Z,95730.13
2018-12-07T19:17:19.511Z,95734.97
2018-12-07T19:19:47.219Z,95726.79
2018-12-07T19:22:15.057Z,95735.93
2018-12-07T19:24:42.732Z,95730.80
2018-12-07T19:27:10.270Z,95735.59
2018-12-07T19:29:38.342Z,95735.08
2018-12-07T19:32:06.288Z,95738.48
2018-12-07T19:34:33.967Z,95740.49
2018-12-07T19:37:01.886Z,95732.53
2018-12-07T19:39:31.013Z,95731.47
2018-12-07T19:42:00.189Z,95725.23
2018-12-07T19:44:29.455Z,95722.42
2018-12-07T19:46:57.114Z,95725.19
2018-12-07T19:49:24.983Z,95714.37
2018-12-07T19:51:52.908Z,95726.22
2018-12-07T19:54:20.741Z,95723.02
2018-12-07T19:56:48.495Z,95717.27
2018-12-07T19:59:16.500Z,95722.38
2018-12-07T20:01:44.239Z,95726.13
2018-12-07T20:04:12.959Z,95708.37
2018-12-07T20:06:40.616Z,95713.45
2018-12-07T20:09:08.342Z,95701.47
2018-12-07T20:11:36.106Z,95701.06
2018-12-07T20:14:03.848Z,95705.20
2018-12-07T20:16:31.612Z,95705.36
2018-12-07T20:18:59.288Z,95718.39
2018-12-07T20:21:26.923Z,95713.50
2018-12-07T20:23:54.793Z,95744.55
2018-12-07T20:26:22.329Z,95725.81
2018-12-07T20:28:49.878Z,95729.34
2018-12-07T20:31:17.489Z,95742.67
2018-12-07T20:33:47.717Z,95740.04
2018-12-07T20:36:16.194Z,95726.20
2018-12-07T20:38:43.830Z,95750.38
2018-12-07T20:41:11.429Z,95741.92
2018-12-07T20:43:39.343Z,95748.34
2018-12-07T20:46:07.058Z,95753.24
2018-12-07T20:48:35.039Z,95768.02
2018-12-07T20:51:02.871Z,95812.77
2018-12-07T20:53:30.540Z,95844.64
2018-12-07T20:55:58.313Z,95887.02
2018-12-07T20:58:26.093Z,95860.31
2018-12-07T21:00:59.281Z,95865.72
2018-12-07T21:13:34.751Z,95858.16
2018-12-07T21:19:19.219Z,95868.13
2018-12-07T21:21:47.159Z,95883.25
2018-12-07T21:24:15.669Z,95886.55
2018-12-07T21:26:46.162Z,95903.95
2018-12-07T21:29:14.095Z,95913.92
2018-12-07T21:31:42.034Z,95906.25
2018-12-07T21:34:14.306Z,95908.06
2018-12-07T21:36:42.474Z,95910.08
2018-12-07T21:39:20.257Z,95912.39
2018-12-07T21:41:47.928Z,95898.33
2018-12-07T21:44:15.474Z,95907.02
2018-12-07T21:46:43.104Z,95908.80
2018-12-07T21:49:11.063Z,95930.53
2018-12-07T21:51:43.003Z,95951.77
2018-12-07T21:54:10.853Z,95976.08
2018-12-07T21:56:38.789Z,95989.86
2018-12-07T21:59:06.444Z,95987.86
2018-12-07T22:01:34.085Z,96014.44
2018-12-07T22:04:01.636Z,96009.06
2018-12-07T22:06:29.375Z,96003.44
2018-12-07T22:11:31.970Z,96030.55
2018-12-07T22:14:01.707Z,96026.72
2018-12-07T22:16:29.924Z,96022.86
2018-12-07T22:18:57.464Z,96012.12
2018-12-07T22:21:25.006Z,96001.38
2018-12-07T22:23:53.057Z,95999.86
2018-12-07T22:26:20.897Z,95990.89
2018-12-07T22:28:48.785Z,95985.00
2018-12-07T22:31:16.465Z,96012.64
2018-12-07T22:33:44.653Z,96010.05
2018-12-07T22:36:12.633Z,96004.42
2018-12-07T22:38:40.425Z,95998.29
2018-12-07T22:41:09.489Z,96015.36
2018-12-07T22:43:40.381Z,96022.27
2018-12-07T22:46:08.302Z,96027.89
2018-12-07T22:48:36.008Z,96037.27
2018-12-07T22:51:04.130Z,96029.59
2018-12-07T22:53:31.666Z,96049.27
2018-12-07T22:55:59.368Z,96054.39
2018-12-07T22:58:26.944Z,96060.26
2018-12-07T23:00:54.501Z,96066.67
2018-12-07T23:03:22.049Z,96059.02
2018-12-07T23:05:50.849Z,96075.34
2018-12-07T23:08:18.392Z,96088.12
2018-12-07T23:10:47.273Z,96089.16
2018-12-07T23:13:16.344Z,96090.44
2018-12-07T23:15:43.980Z,96087.09
2018-12-07T23:18:11.515Z,96106.98
2018-12-07T23:20:39.286Z,96089.08
2018-12-07T23:23:06.817Z,96097.75
2018-12-07T23:25:34.344Z,96105.93
2018-12-07T23:28:01.885Z,96114.31
2018-12-07T23:30:29.415Z,96122.98
2018-12-07T23:32:56.982Z,96134.75
2018-12-07T23:35:26.348Z,96148.32
2018-12-07T23:37:55.109Z,96140.72
2018-12-07T23:40:22.637Z,96145.85
2018-12-07T23:42:52.214Z,96145.61
2018-12-07T23:45:19.748Z,96146.56
2018-12-07T23:47:47.285Z,96135.80
2018-12-07T23:50:14.812Z,96140.44
2018-12-07T23:52:42.347Z,96146.56
2018-12-07T23:55:10.606Z,96143.98
2018-12-07T23:57:39.501Z,96163.48
